createdAt,value
2023-03-23T15:59:04.991Z,17.55
2023-03-23T16:01:33.092Z,17.34
2023-03-23T16:04:07.809Z,17.20
2023-03-23T16:06:36.853Z,17.08
2023-03-23T16:09:06.939Z,16.98
2023-03-23T16:11:34.832Z,16.90
2023-03-23T16:14:03.063Z,16.81
2023-03-23T16:16:47.904Z,16.72
2023-03-23T16:19:18.192Z,16.62
2023-03-23T16:21:46.163Z,16.55
2023-03-23T16:24:14.300Z,16.47
2023-03-23T16:26:42.357Z,16.39
2023-03-23T16:29:28.444Z,16.32
2023-03-23T16:32:04.379Z,16.24
2023-03-23T16:34:33.949Z,16.18
2023-03-23T16:37:02.650Z,16.11
2023-03-23T16:39:30.730Z,16.04
2023-03-23T16:41:58.822Z,15.97
2023-03-23T16:44:26.808Z,15.92
2023-03-23T16:46:54.761Z,15.88
2023-03-23T16:49:22.589Z,15.82
2023-03-23T16:51:50.477Z,15.77
2023-03-23T16:54:18.500Z,15.73
2023-03-23T16:56:47.040Z,15.69
2023-03-23T16:59:15.472Z,15.64
2023-03-23T17:01:43.505Z,15.60
2023-03-23T17:04:12.119Z,15.56
2023-03-23T17:06:39.998Z,15.52
2023-03-23T17:09:08.059Z,15.48
2023-03-23T17:11:35.890Z,15.47
2023-03-23T17:14:03.841Z,16.52
2023-03-23T17:16:32.846Z,18.00
2023-03-23T17:19:01.110Z,17.64
2023-03-23T17:21:29.225Z,17.06
2023-03-23T17:23:57.281Z,16.70
2023-03-23T17:26:25.395Z,16.46
2023-03-23T17:28:53.310Z,16.28
2023-03-23T17:31:21.397Z,16.14
2023-03-23T17:33:49.796Z,16.01
2023-03-23T17:36:18.384Z,15.90
2023-03-23T17:38:46.453Z,15.81
2023-03-23T17:41:15.076Z,15.71
2023-03-23T17:43:43.184Z,16.03
2023-03-23T17:46:11.209Z,17.77
2023-03-23T17:48:39.303Z,18.68
2023-03-23T17:51:07.630Z,17.97
2023-03-23T17:53:36.649Z,17.33
2023-03-23T17:56:06.422Z,16.92
2023-03-23T17:58:35.506Z,16.63
2023-03-23T18:01:04.424Z,16.41
2023-03-23T18:03:32.748Z,16.25
2023-03-23T18:06:04.763Z,16.10
2023-03-23T18:08:32.872Z,15.96
2023-03-23T18:11:01.490Z,15.85
2023-03-23T18:13:34.450Z,15.74
2023-03-23T18:16:03.931Z,16.20
2023-03-23T18:18:32.560Z,18.01
2023-03-23T18:21:04.685Z,18.56
2023-03-23T18:23:39.008Z,17.78
2023-03-23T18:26:12.496Z,17.16
2023-03-23T18:28:40.811Z,16.76
2023-03-23T18:31:14.748Z,16.49
2023-03-23T18:33:46.730Z,16.26
2023-03-23T18:36:20.606Z,16.07
2023-03-23T18:38:49.521Z,15.91
2023-03-23T18:41:18.666Z,15.76
2023-03-23T18:43:46.659Z,16.04
2023-03-23T18:46:14.757Z,17.76
2023-03-23T18:48:42.790Z,18.69
2023-03-23T18:51:11.418Z,17.92
2023-03-23T18:53:40.407Z,17.24
2023-03-23T18:56:11.015Z,16.78
2023-03-23T18:58:40.214Z,16.45
2023-03-23T19:01:14.840Z,16.19
2023-03-23T19:03:43.582Z,15.96
2023-03-23T19:06:18.995Z,15.77
2023-03-23T19:08:48.866Z,15.59
2023-03-23T19:11:17.309Z,15.77
2023-03-23T19:13:58.412Z,17.43
2023-03-23T19:16:32.905Z,18.39
2023-03-23T19:19:02.363Z,17.57
2023-03-23T19:21:32.034Z,16.87
2023-03-23T19:24:01.614Z,16.37
2023-03-23T19:26:38.146Z,16.02
2023-03-23T19:29:25.922Z,15.72
2023-03-23T19:31:57.955Z,15.45
2023-03-23T19:34:28.186Z,15.36
2023-03-23T19:37:04.174Z,16.71
2023-03-23T19:39:34.740Z,17.88
2023-03-23T19:42:04.380Z,17.21
2023-03-23T19:44:34.509Z,16.48
2023-03-23T19:47:02.955Z,15.98
2023-03-23T19:49:31.030Z,15.62
2023-03-23T19:52:06.484Z,15.34
2023-03-23T19:54:39.139Z,15.54
2023-03-23T19:57:08.900Z,17.21
2023-03-23T19:59:38.200Z,18.00
2023-03-23T20:02:06.588Z,17.17
2023-03-23T20:04:35.387Z,16.40
2023-03-23T20:07:07.466Z,15.86
2023-03-23T20:09:38.159Z,15.48
2023-03-23T20:12:07.180Z,15.17
2023-03-23T20:14:36.889Z,14.91
2023-03-23T20:17:06.023Z,15.27
2023-03-23T20:19:36.353Z,16.98
2023-03-23T20:22:04.626Z,17.73
2023-03-23T20:24:32.612Z,16.88
2023-03-23T20:27:03.104Z,16.11
2023-03-23T20:29:31.641Z,15.57
2023-03-23T20:31:59.659Z,15.18
2023-03-23T20:34:31.205Z,14.89
2023-03-23T20:37:00.614Z,14.63
2023-03-23T20:39:31.086Z,15.16
2023-03-23T20:42:04.383Z,16.91
2023-03-23T20:44:34.923Z,17.48
2023-03-23T20:47:04.442Z,16.58
2023-03-23T20:49:34.993Z,15.83
2023-03-23T20:52:05.171Z,15.30
2023-03-23T20:54:33.149Z,14.92
2023-03-23T20:57:02.035Z,14.62
2023-03-23T20:59:30.079Z,14.37
2023-03-23T21:01:58.164Z,14.84
2023-03-23T21:04:27.594Z,16.61
2023-03-23T21:06:56.086Z,17.40
2023-03-23T21:09:25.413Z,16.56
2023-03-23T21:11:53.782Z,15.74
2023-03-23T21:14:21.918Z,15.18
2023-03-23T21:16:49.903Z,14.77
2023-03-23T21:19:19.630Z,14.47
2023-03-23T21:21:55.320Z,15.12
2023-03-23T21:24:30.909Z,16.78
2023-03-23T21:27:01.535Z,16.50
2023-03-23T21:29:30.919Z,15.63
2023-03-23T21:34:30.659Z,14.56
2023-03-23T21:36:59.198Z,14.62
2023-03-23T21:39:28.282Z,16.19
2023-03-23T21:41:56.346Z,17.14
2023-03-23T21:44:24.324Z,16.34
2023-03-23T21:46:52.482Z,15.50
2023-03-23T21:49:20.741Z,14.94
2023-03-23T21:51:49.597Z,14.52
2023-03-23T21:54:17.568Z,14.58
2023-03-23T21:56:45.463Z,16.14
2023-03-23T21:59:13.713Z,17.08
2023-03-23T22:01:41.730Z,16.27
2023-03-23T22:04:10.290Z,15.47
2023-03-23T22:06:38.218Z,14.90
2023-03-23T22:09:06.251Z,14.48
2023-03-23T22:11:34.567Z,14.16
2023-03-23T22:14:04.193Z,14.72
2023-03-23T22:16:32.692Z,16.45
2023-03-23T22:19:02.210Z,17.18
2023-03-23T22:21:30.709Z,16.28
2023-03-23T22:24:00.690Z,15.42
2023-03-23T22:26:30.025Z,14.83
2023-03-23T22:28:59.940Z,14.42
2023-03-23T22:31:33.929Z,14.08
2023-03-23T22:34:02.244Z,14.64
2023-03-23T22:36:30.618Z,16.35
2023-03-23T22:38:58.905Z,17.08
2023-03-23T22:41:36.895Z,16.17
2023-03-23T22:44:06.208Z,15.29
2023-03-23T22:46:34.089Z,14.70
2023-03-23T22:49:02.233Z,14.27
2023-03-23T22:51:30.732Z,14.37
2023-03-23T22:53:58.887Z,15.94
2023-03-23T22:56:26.940Z,16.85
2023-03-23T22:58:55.261Z,16.04
2023-03-23T23:01:23.887Z,15.18
2023-03-23T23:03:52.190Z,14.58
2023-03-23T23:06:20.717Z,14.15
2023-03-23T23:08:48.946Z,14.36
2023-03-23T23:11:19.244Z,15.98
2023-03-23T23:13:47.561Z,16.83
2023-03-23T23:16:17.371Z,15.96
2023-03-23T23:18:47.724Z,15.10
2023-03-23T23:21:19.703Z,14.49
2023-03-23T23:23:49.580Z,14.06
2023-03-23T23:26:18.981Z,14.70
2023-03-23T23:28:47.544Z,16.38
2023-03-23T23:31:29.286Z,16.99
2023-03-23T23:33:59.373Z,15.93
2023-03-23T23:36:30.335Z,15.07
2023-03-23T23:39:03.671Z,14.48
2023-03-23T23:41:31.768Z,14.03
2023-03-23T23:44:00.303Z,14.28
2023-03-23T23:46:30.785Z,15.93
2023-03-23T23:49:00.334Z,16.76
2023-03-23T23:51:29.319Z,15.89
2023-03-23T23:54:01.524Z,15.01
2023-03-23T23:56:29.645Z,14.41
2023-03-23T23:58:58.670Z,14.00
